createdAt,value
2017-10-07T15:57:31.073Z,980.70
2017-10-07T15:58:31.045Z,999.04
2017-10-07T15:59:31.049Z,999.00
2017-10-07T16:00:31.937Z,999.01
2017-10-07T16:01:31.192Z,998.91
2017-10-07T16:02:31.938Z,998.90
2017-10-07T16:03:31.138Z,998.94
2017-10-07T16:04:31.049Z,998.80
2017-10-07T16:05:31.078Z,998.92
2017-10-07T16:06:31.177Z,998.86
2017-10-07T16:07:31.198Z,998.84
2017-10-07T16:08:31.176Z,998.80
2017-10-07T16:09:31.084Z,998.71
2017-10-07T16:10:31.185Z,998.68
2017-10-07T16:11:31.258Z,998.60
2017-10-07T16:12:31.233Z,998.69
2017-10-07T16:13:31.126Z,998.73
2017-10-07T16:14:31.174Z,998.72
2017-10-07T16:15:31.108Z,998.60
2017-10-07T16:16:31.183Z,998.64
2017-10-07T16:17:31.184Z,998.60
2017-10-07T16:18:31.283Z,998.61
2017-10-07T16:19:31.106Z,998.58
2017-10-07T16:20:31.177Z,998.63
2017-10-07T16:21:31.154Z,998.58
2017-10-07T16:22:31.144Z,998.64
2017-10-07T16:23:31.213Z,998.66
2017-10-07T16:24:31.127Z,998.60
2017-10-07T16:25:31.090Z,998.61
2017-10-07T16:26:31.311Z,998.62
2017-10-07T16:27:31.158Z,998.59
2017-10-07T16:28:31.090Z,998.55
2017-10-07T16:29:31.163Z,998.53
2017-10-07T16:30:31.167Z,998.49
2017-10-07T16:31:31.208Z,998.52
2017-10-07T16:32:31.103Z,998.54
2017-10-07T16:33:31.144Z,998.41
2017-10-07T16:34:31.089Z,998.41
2017-10-07T16:35:31.108Z,998.37
2017-10-07T16:36:31.196Z,998.34
2017-10-07T16:37:31.224Z,998.33
2017-10-07T16:38:31.168Z,998.31
2017-10-07T16:39:31.277Z,998.22
2017-10-07T16:40:31.094Z,998.23
2017-10-07T16:41:31.166Z,998.21
2017-10-07T16:42:31.161Z,998.21
2017-10-07T16:43:31.092Z,998.20
2017-10-07T16:44:31.156Z,998.20
2017-10-07T16:45:31.072Z,998.15
2017-10-07T16:46:31.130Z,998.20
2017-10-07T16:47:31.137Z,998.24
2017-10-07T16:48:31.204Z,998.31
2017-10-07T16:49:31.115Z,998.24
2017-10-07T16:50:31.143Z,998.26
2017-10-07T16:51:32.018Z,998.30
2017-10-07T16:52:31.152Z,998.29
2017-10-07T16:53:31.120Z,998.37
2017-10-07T16:54:31.137Z,998.31
2017-10-07T16:55:31.134Z,998.35
2017-10-07T16:56:31.084Z,998.34
2017-10-07T16:57:31.094Z,998.26
2017-10-07T16:58:31.092Z,998.28
2017-10-07T16:59:31.175Z,998.42
2017-10-07T17:00:31.173Z,998.34
2017-10-07T17:01:31.137Z,998.29
2017-10-07T17:02:31.174Z,998.31
2017-10-07T17:03:31.059Z,998.25
2017-10-07T17:04:31.136Z,998.24
2017-10-07T17:05:31.218Z,998.28
2017-10-07T17:06:31.172Z,998.25
2017-10-07T17:07:31.150Z,998.15
2017-10-07T17:08:31.039Z,998.13
2017-10-07T17:09:31.180Z,998.20
2017-10-07T17:10:31.093Z,998.11
2017-10-07T17:11:31.114Z,998.26
2017-10-07T17:12:31.232Z,998.18
2017-10-07T17:13:31.063Z,998.22
2017-10-07T17:14:31.077Z,998.20
2017-10-07T17:15:31.101Z,998.16
2017-10-07T17:16:31.118Z,998.13
2017-10-07T17:17:31.184Z,998.14
2017-10-07T17:18:32.559Z,998.23
2017-10-07T17:19:31.181Z,998.17
2017-10-07T17:20:31.070Z,998.25
2017-10-07T17:21:31.314Z,998.16
2017-10-07T17:22:31.214Z,998.12
2017-10-07T17:23:31.061Z,998.03
2017-10-07T17:24:31.086Z,998.09
2017-10-07T17:25:31.191Z,998.05
2017-10-07T17:26:31.104Z,998.07
2017-10-07T17:27:31.141Z,998.12
2017-10-07T17:28:31.110Z,998.01
2017-10-07T17:29:31.045Z,997.96
2017-10-07T17:30:31.086Z,998.01
2017-10-07T17:31:31.156Z,998.06
2017-10-07T17:32:31.044Z,997.96
2017-10-07T17:33:31.127Z,997.98
2017-10-07T17:34:31.158Z,998.03
2017-10-07T17:35:31.102Z,998.00
2017-10-07T17:36:31.583Z,997.88
2017-10-07T17:37:31.217Z,997.91
2017-10-07T17:38:31.219Z,998.02
2017-10-07T17:39:31.118Z,997.89
2017-10-07T17:40:31.033Z,997.92
2017-10-07T17:41:31.122Z,997.93
2017-10-07T17:42:31.056Z,997.93
2017-10-07T17:43:31.089Z,997.86
2017-10-07T17:44:31.086Z,997.87
2017-10-07T17:45:31.086Z,997.88
2017-10-07T17:46:31.095Z,997.74
2017-10-07T17:47:31.051Z,997.84
2017-10-07T17:48:31.207Z,997.84
2017-10-07T17:49:31.119Z,997.78
2017-10-07T17:50:31.115Z,997.72
2017-10-07T17:51:31.046Z,997.76
2017-10-07T17:52:31.057Z,997.69
2017-10-07T17:53:31.096Z,997.62
2017-10-07T17:54:31.086Z,997.70
2017-10-07T17:55:31.098Z,997.68
2017-10-07T17:56:31.029Z,997.60
2017-10-07T17:57:31.050Z,997.71
2017-10-07T17:58:31.171Z,997.66
2017-10-07T17:59:31.159Z,997.60
2017-10-07T18:00:31.029Z,997.61
2017-10-07T18:01:31.215Z,997.61
2017-10-07T18:02:31.099Z,997.53
2017-10-07T18:03:31.127Z,997.55
2017-10-07T18:04:31.090Z,997.59
2017-10-07T18:05:31.203Z,997.56
2017-10-07T18:06:31.130Z,997.63
2017-10-07T18:07:31.100Z,997.50
2017-10-07T18:08:31.069Z,997.53
2017-10-07T18:09:31.185Z,997.58
2017-10-07T18:10:31.082Z,997.50
2017-10-07T18:11:31.095Z,997.49
2017-10-07T18:12:31.013Z,997.42
2017-10-07T18:13:31.188Z,997.47
2017-10-07T18:14:31.202Z,997.50
2017-10-07T18:15:31.057Z,997.48
2017-10-07T18:16:31.141Z,997.45
2017-10-07T18:17:31.131Z,997.46
2017-10-07T18:18:31.076Z,997.47
2017-10-07T18:19:31.069Z,997.48
2017-10-07T18:20:31.052Z,997.46
2017-10-07T18:21:31.076Z,997.45
2017-10-07T18:22:31.002Z,997.41
2017-10-07T18:23:31.071Z,997.41
2017-10-07T18:24:31.211Z,997.48
2017-10-07T18:25:31.046Z,997.50
2017-10-07T18:26:31.060Z,997.40
2017-10-07T18:27:31.034Z,997.38
2017-10-07T18:28:31.045Z,997.35
2017-10-07T18:29:31.175Z,997.41
2017-10-07T18:30:31.037Z,997.39
2017-10-07T18:31:31.106Z,997.34
2017-10-07T18:32:31.079Z,997.29
2017-10-07T18:33:31.106Z,997.33
2017-10-07T18:34:31.138Z,997.27
2017-10-07T18:35:31.025Z,997.32
2017-10-07T18:36:31.128Z,997.35
2017-10-07T18:37:31.030Z,997.21
2017-10-07T18:38:31.129Z,997.22
2017-10-07T18:39:31.200Z,997.32
2017-10-07T18:40:31.008Z,997.35
2017-10-07T18:41:31.069Z,997.34
2017-10-07T18:42:31.006Z,997.41
2017-10-07T18:43:31.146Z,997.41
2017-10-07T18:44:31.129Z,997.35
2017-10-07T18:45:31.126Z,997.39
2017-10-07T18:46:31.109Z,997.29
2017-10-07T18:47:31.090Z,997.39
2017-10-07T18:48:31.194Z,997.41
2017-10-07T18:49:31.195Z,997.41
2017-10-07T18:50:31.090Z,997.48
2017-10-07T18:51:31.044Z,997.37
2017-10-07T18:52:30.988Z,997.34
2017-10-07T18:53:31.244Z,997.43
2017-10-07T18:54:30.973Z,997.38
2017-10-07T18:55:31.199Z,997.29
2017-10-07T18:56:31.095Z,997.31
2017-10-07T18:57:31.120Z,997.35
2017-10-07T18:58:30.991Z,997.35
2017-10-07T18:59:31.055Z,997.45
2017-10-07T19:00:31.117Z,997.36
2017-10-07T19:01:31.110Z,997.37
2017-10-07T19:02:31.146Z,997.37
2017-10-07T19:03:31.161Z,997.37
2017-10-07T19:04:31.035Z,997.41
2017-10-07T19:05:31.415Z,997.37
2017-10-07T19:06:31.913Z,997.32
2017-10-07T19:07:31.225Z,997.27
2017-10-07T19:08:30.995Z,997.28
2017-10-07T19:09:31.004Z,997.26
2017-10-07T19:10:31.278Z,997.23
2017-10-07T19:11:31.088Z,997.31
2017-10-07T19:12:30.995Z,997.35
2017-10-07T19:13:30.999Z,997.32
2017-10-07T19:14:31.056Z,997.30
2017-10-07T19:15:31.074Z,997.26
2017-10-07T19:16:31.188Z,997.40
2017-10-07T19:17:31.238Z,997.32
2017-10-07T19:18:31.064Z,997.32
2017-10-07T19:19:31.104Z,997.37
2017-10-07T19:20:31.177Z,997.35
2017-10-07T19:21:31.747Z,997.31
2017-10-07T19:22:30.997Z,997.38
2017-10-07T19:23:31.208Z,997.37
2017-10-07T19:24:30.985Z,997.37
2017-10-07T19:25:30.984Z,997.33
2017-10-07T19:26:31.028Z,997.37
2017-10-07T19:27:31.242Z,997.38
2017-10-07T19:28:30.980Z,997.23
2017-10-07T19:29:31.102Z,997.29
2017-10-07T19:30:31.058Z,997.21
2017-10-07T19:31:31.761Z,997.28
2017-10-07T19:32:31.191Z,997.21
2017-10-07T19:33:31.056Z,997.17
2017-10-07T19:34:31.011Z,997.14
2017-10-07T19:35:31.045Z,997.18
2017-10-07T19:36:31.005Z,997.19
2017-10-07T19:37:31.003Z,997.10
2017-10-07T19:38:30.976Z,997.12
2017-10-07T19:39:31.035Z,997.06
2017-10-07T19:40:31.095Z,997.17
2017-10-07T19:41:31.018Z,997.11
2017-10-07T19:42:31.022Z,997.09
2017-10-07T19:43:31.094Z,997.08
2017-10-07T19:44:31.021Z,997.10
2017-10-07T19:45:31.011Z,997.06
2017-10-07T19:46:31.537Z,997.12
2017-10-07T19:47:30.969Z,997.02
2017-10-07T19:48:31.061Z,997.01
2017-10-07T19:49:31.110Z,997.09
2017-10-07T19:50:31.108Z,997.03
2017-10-07T19:51:31.159Z,997.09
2017-10-07T19:52:31.264Z,997.00
2017-10-07T19:53:31.084Z,997.02
2017-10-07T19:54:31.156Z,997.02
2017-10-07T19:55:31.095Z,997.04
2017-10-07T19:56:31.120Z,996.93
2017-10-07T19:57:31.650Z,996.93
2017-10-07T19:58:31.091Z,996.97
2017-10-07T19:59:31.038Z,996.95
2017-10-07T20:00:30.988Z,996.96
2017-10-07T20:01:31.100Z,996.90
2017-10-07T20:02:31.080Z,997.01
2017-10-07T20:03:31.112Z,996.93
2017-10-07T20:04:31.009Z,996.94
2017-10-07T20:05:31.110Z,996.90
2017-10-07T20:06:31.059Z,996.97
2017-10-07T20:07:31.002Z,996.87
2017-10-07T20:08:31.046Z,996.87
2017-10-07T20:09:30.977Z,996.88
2017-10-07T20:10:30.993Z,996.91
2017-10-07T20:11:30.961Z,996.82
2017-10-07T20:12:31.057Z,996.85
2017-10-07T20:13:30.966Z,996.78
2017-10-07T20:14:31.162Z,996.84
2017-10-07T20:15:31.054Z,996.89
2017-10-07T20:16:31.087Z,996.78
2017-10-07T20:17:31.032Z,996.81
2017-10-07T20:18:31.182Z,996.81
2017-10-07T20:19:31.024Z,996.79
2017-10-07T20:20:30.998Z,996.78
2017-10-07T20:21:31.174Z,996.78
2017-10-07T20:22:31.137Z,996.84
2017-10-07T20:23:31.847Z,996.81
2017-10-07T20:24:31.145Z,996.80
2017-10-07T20:25:31.158Z,996.77
2017-10-07T20:26:30.971Z,996.77
2017-10-07T20:27:31.082Z,996.78
2017-10-07T20:28:31.039Z,996.78
2017-10-07T20:29:30.972Z,996.78
2017-10-07T20:30:31.146Z,996.74
2017-10-07T20:31:30.958Z,996.74
2017-10-07T20:32:30.993Z,996.75
2017-10-07T20:33:31.125Z,996.70
2017-10-07T20:34:31.403Z,996.71
2017-10-07T20:35:31.046Z,996.63
2017-10-07T20:36:31.027Z,996.67
2017-10-07T20:37:31.035Z,996.61
2017-10-07T20:38:31.084Z,996.65
2017-10-07T20:39:31.368Z,996.65
2017-10-07T20:40:31.037Z,996.64
2017-10-07T20:41:31.012Z,996.65
2017-10-07T20:42:30.992Z,996.57
2017-10-07T20:43:31.164Z,996.59
2017-10-07T20:44:30.980Z,996.57
2017-10-07T20:45:31.055Z,996.57
2017-10-07T20:46:31.187Z,996.48
2017-10-07T20:47:30.940Z,996.50
2017-10-07T20:48:30.960Z,996.52
2017-10-07T20:49:31.463Z,996.60
2017-10-07T20:50:31.909Z,996.50
2017-10-07T20:51:30.982Z,996.49
2017-10-07T20:52:31.006Z,996.54
2017-10-07T20:53:31.183Z,996.56
2017-10-07T20:54:31.004Z,996.48
2017-10-07T20:55:30.916Z,996.46
2017-10-07T20:56:31.073Z,996.37
2017-10-07T20:57:31.056Z,996.46
2017-10-07T20:58:31.039Z,996.50
2017-10-07T20:59:31.066Z,996.51
2017-10-07T21:00:30.964Z,996.43
2017-10-07T21:01:31.169Z,996.54
2017-10-07T21:02:31.020Z,996.49
2017-10-07T21:03:31.142Z,996.42
2017-10-07T21:04:31.000Z,996.47
2017-10-07T21:05:30.977Z,996.39
2017-10-07T21:06:30.945Z,996.33
2017-10-07T21:07:30.993Z,996.23
2017-10-07T21:08:31.033Z,996.40
2017-10-07T21:09:30.933Z,996.37
2017-10-07T21:10:30.970Z,996.38
2017-10-07T21:11:31.066Z,996.27
2017-10-07T21:12:31.149Z,996.28
2017-10-07T21:13:31.052Z,996.41
2017-10-07T21:14:30.984Z,996.39
2017-10-07T21:15:30.968Z,996.36
2017-10-07T21:16:31.013Z,996.37
2017-10-07T21:17:31.040Z,996.32
2017-10-07T21:18:30.990Z,996.24
2017-10-07T21:19:31.033Z,996.39
2017-10-07T21:20:30.986Z,996.34
2017-10-07T21:21:31.052Z,996.23
2017-10-07T21:22:30.968Z,996.29
2017-10-07T21:23:31.134Z,996.29
2017-10-07T21:24:31.150Z,996.35
2017-10-07T21:25:31.021Z,996.27
2017-10-07T21:26:30.958Z,996.40
2017-10-07T21:27:31.014Z,996.37
2017-10-07T21:28:30.985Z,996.33
2017-10-07T21:29:31.642Z,996.27
2017-10-07T21:30:31.039Z,996.35
2017-10-07T21:31:30.982Z,996.30
2017-10-07T21:32:30.942Z,996.34
2017-10-07T21:33:31.065Z,996.27
2017-10-07T21:34:30.989Z,996.27
2017-10-07T21:35:30.938Z,996.29
2017-10-07T21:36:31.000Z,996.24
2017-10-07T21:37:31.063Z,996.26
2017-10-07T21:38:30.995Z,996.27
2017-10-07T21:39:30.971Z,996.17
2017-10-07T21:40:30.920Z,996.16
2017-10-07T21:41:31.076Z,996.22
2017-10-07T21:42:30.999Z,996.15
2017-10-07T21:43:31.030Z,996.15
2017-10-07T21:44:30.954Z,996.11
2017-10-07T21:45:31.118Z,996.13
2017-10-07T21:46:30.999Z,996.14
2017-10-07T21:47:31.020Z,996.17
2017-10-07T21:48:31.014Z,996.21
2017-10-07T21:49:31.175Z,996.06
2017-10-07T21:50:30.966Z,996.00
2017-10-07T21:51:30.934Z,996.08
2017-10-07T21:52:31.022Z,996.05
2017-10-07T21:53:30.912Z,996.07
2017-10-07T21:54:31.020Z,996.02
2017-10-07T21:55:31.040Z,995.97
2017-10-07T21:56:30.942Z,996.02
2017-10-07T21:57:31.100Z,996.04
2017-10-07T21:58:31.038Z,995.98
2017-10-07T21:59:30.938Z,996.01
2017-10-07T22:00:31.190Z,995.99
2017-10-07T22:01:31.109Z,996.04
2017-10-07T22:02:31.027Z,996.02
2017-10-07T22:03:30.961Z,996.03
2017-10-07T22:04:30.889Z,996.02
2017-10-07T22:05:31.060Z,995.98
2017-10-07T22:06:30.923Z,996.10
2017-10-07T22:07:31.045Z,995.98
2017-10-07T22:08:31.047Z,995.91
2017-10-07T22:09:31.017Z,996.04
2017-10-07T22:10:30.937Z,996.02
2017-10-07T22:11:30.990Z,996.13
2017-10-07T22:12:31.048Z,996.11
2017-10-07T22:13:31.081Z,996.06
2017-10-07T22:14:30.990Z,996.06
2017-10-07T22:15:31.062Z,996.04
2017-10-07T22:16:31.042Z,995.97
2017-10-07T22:17:31.006Z,996.01
2017-10-07T22:18:31.086Z,996.10
2017-10-07T22:19:30.963Z,996.00
2017-10-07T22:20:31.091Z,996.08
2017-10-07T22:21:30.983Z,996.00
2017-10-07T22:22:31.035Z,995.98
2017-10-07T22:23:30.901Z,995.92
2017-10-07T22:24:30.920Z,996.02
2017-10-07T22:25:31.073Z,995.94
2017-10-07T22:26:30.924Z,995.97
2017-10-07T22:27:30.982Z,995.90
2017-10-07T22:28:31.035Z,995.99
2017-10-07T22:29:30.968Z,995.95
2017-10-07T22:30:31.008Z,995.85
2017-10-07T22:31:30.979Z,995.90
2017-10-07T22:32:30.916Z,995.81
2017-10-07T22:33:31.061Z,995.75
2017-10-07T22:34:30.931Z,995.73
2017-10-07T22:35:31.018Z,995.70
2017-10-07T22:36:30.973Z,995.70
2017-10-07T22:37:30.907Z,995.74
2017-10-07T22:38:30.906Z,995.76
2017-10-07T22:39:31.089Z,995.60
2017-10-07T22:40:31.119Z,995.61
2017-10-07T22:41:30.999Z,995.71
2017-10-07T22:42:31.003Z,995.72
2017-10-07T22:43:30.936Z,995.74
2017-10-07T22:44:30.907Z,995.69
2017-10-07T22:45:31.060Z,995.61
2017-10-07T22:46:31.319Z,995.66
2017-10-07T22:47:30.898Z,995.59
2017-10-07T22:48:31.039Z,995.62
2017-10-07T22:49:30.988Z,995.64
2017-10-07T22:50:30.895Z,995.66
2017-10-07T22:51:31.064Z,995.70
2017-10-07T22:52:30.964Z,995.65
2017-10-07T22:53:31.574Z,995.59
2017-10-07T22:54:30.896Z,995.65
2017-10-07T22:55:31.058Z,995.63
2017-10-07T22:56:30.990Z,995.68
2017-10-07T22:57:30.938Z,995.61
2017-10-07T22:58:30.875Z,995.60
2017-10-07T22:59:30.891Z,995.52
2017-10-07T23:00:30.915Z,995.47
2017-10-07T23:01:30.971Z,995.54
2017-10-07T23:02:31.032Z,995.60
2017-10-07T23:03:30.909Z,995.54
2017-10-07T23:04:30.949Z,995.57
2017-10-07T23:05:31.012Z,995.47
2017-10-07T23:06:30.971Z,995.48
2017-10-07T23:07:30.914Z,995.42
2017-10-07T23:08:30.991Z,995.43
2017-10-07T23:09:30.875Z,995.57
2017-10-07T23:10:30.890Z,995.54
2017-10-07T23:11:30.963Z,995.49
2017-10-07T23:12:30.897Z,995.48
2017-10-07T23:13:30.907Z,995.53
2017-10-07T23:14:30.857Z,995.55
2017-10-07T23:15:30.880Z,995.45
2017-10-07T23:16:30.983Z,995.50
2017-10-07T23:17:30.973Z,995.48
2017-10-07T23:18:30.916Z,995.47
2017-10-07T23:19:30.935Z,995.47
2017-10-07T23:20:30.905Z,995.50
2017-10-07T23:21:31.068Z,995.44
2017-10-07T23:22:30.907Z,995.47
2017-10-07T23:23:30.906Z,995.45
2017-10-07T23:24:30.936Z,995.47
2017-10-07T23:25:30.950Z,995.37
2017-10-07T23:26:30.990Z,995.41
2017-10-07T23:27:30.942Z,995.36
2017-10-07T23:28:30.909Z,995.47
2017-10-07T23:29:30.993Z,995.46
2017-10-07T23:30:30.893Z,995.50
2017-10-07T23:31:30.950Z,995.41
2017-10-07T23:32:30.845Z,995.41
2017-10-07T23:33:31.007Z,995.42
2017-10-07T23:34:31.009Z,995.43
2017-10-07T23:35:30.982Z,995.42
2017-10-07T23:36:30.999Z,995.31
2017-10-07T23:37:31.007Z,995.42
2017-10-07T23:38:31.811Z,995.34
2017-10-07T23:39:30.901Z,995.37
2017-10-07T23:40:30.982Z,995.37
2017-10-07T23:41:30.970Z,995.34
2017-10-07T23:42:30.909Z,995.37
2017-10-07T23:43:30.829Z,995.43
2017-10-07T23:44:30.884Z,995.42
2017-10-07T23:45:30.876Z,995.37
2017-10-07T23:46:30.971Z,995.40
2017-10-07T23:47:30.973Z,995.40
2017-10-07T23:48:30.962Z,995.49
2017-10-07T23:49:30.967Z,995.45
2017-10-07T23:50:31.010Z,995.51
2017-10-07T23:51:31.842Z,995.46
2017-10-07T23:52:31.001Z,995.47
2017-10-07T23:53:30.867Z,995.46
2017-10-07T23:54:30.871Z,995.53
2017-10-07T23:55:30.899Z,995.49
2017-10-07T23:56:30.871Z,995.46
2017-10-07T23:57:31.101Z,995.46
2017-10-07T23:58:30.911Z,995.60
2017-10-07T23:59:30.920Z,995.46
